createdAt,value
2023-03-29T00:01:06.553Z,20.13
2023-03-29T00:03:33.981Z,20.12
2023-03-29T00:06:02.964Z,20.14
2023-03-29T00:08:29.722Z,20.14
2023-03-29T00:10:56.791Z,20.15
2023-03-29T00:13:23.138Z,20.15
2023-03-29T00:15:49.470Z,20.17
2023-03-29T00:18:15.840Z,20.17
2023-03-29T00:20:42.169Z,20.17
2023-03-29T00:23:08.537Z,20.11
2023-03-29T00:25:34.863Z,20.15
2023-03-29T00:28:01.200Z,20.14
2023-03-29T00:30:27.521Z,20.15
2023-03-29T00:32:53.905Z,20.09
2023-03-29T00:35:20.325Z,20.06
2023-03-29T00:37:51.032Z,20.05
2023-03-29T00:40:17.496Z,20.06
2023-03-29T00:42:44.289Z,20.06
2023-03-29T00:45:18.973Z,20.06
2023-03-29T00:47:46.493Z,20.09
2023-03-29T00:50:22.391Z,20.08
2023-03-29T00:52:50.751Z,20.08
2023-03-29T00:55:17.852Z,20.09
2023-03-29T00:57:46.461Z,20.12
2023-03-29T01:00:14.534Z,20.13
2023-03-29T01:02:40.982Z,20.14
2023-03-29T01:05:08.505Z,20.14
2023-03-29T01:07:40.956Z,20.13
2023-03-29T01:10:11.996Z,20.12
2023-03-29T01:12:40.421Z,20.09
2023-03-29T01:15:09.106Z,20.06
2023-03-29T01:17:35.552Z,20.04
2023-03-29T01:20:10.718Z,20.06
2023-03-29T01:22:45.486Z,20.08
2023-03-29T01:25:26.677Z,20.07
2023-03-29T01:28:11.526Z,20.08
2023-03-29T01:30:40.352Z,20.08
2023-03-29T01:33:10.959Z,20.09
2023-03-29T01:35:42.482Z,20.10
2023-03-29T01:38:13.438Z,20.13
2023-03-29T01:40:39.836Z,20.13
2023-03-29T01:43:17.485Z,20.12
2023-03-29T01:45:46.950Z,20.08
2023-03-29T01:48:25.665Z,20.07
2023-03-29T01:50:54.285Z,20.09
2023-03-29T01:53:24.205Z,20.12
2023-03-29T01:55:51.908Z,20.11
2023-03-29T01:58:18.255Z,20.11
2023-03-29T02:00:45.635Z,20.08
2023-03-29T02:03:14.966Z,20.05
2023-03-29T02:05:42.386Z,20.01
2023-03-29T02:08:09.095Z,20.01
2023-03-29T02:10:35.599Z,20.05
2023-03-29T02:13:03.029Z,20.06
2023-03-29T02:15:32.288Z,20.08
2023-03-29T02:17:58.767Z,20.11
2023-03-29T02:20:26.548Z,20.15
2023-03-29T02:23:08.217Z,20.16
2023-03-29T02:25:35.413Z,20.17
2023-03-29T02:28:01.792Z,20.17
2023-03-29T02:30:46.332Z,20.17
2023-03-29T02:33:24.120Z,20.15
2023-03-29T02:35:59.039Z,20.16
2023-03-29T02:38:25.621Z,20.14
2023-03-29T02:40:52.866Z,20.09
2023-03-29T02:43:19.219Z,20.08
2023-03-29T02:45:45.556Z,20.08
2023-03-29T02:48:13.418Z,20.08
2023-03-29T02:50:39.868Z,20.10
2023-03-29T02:53:16.959Z,20.12
2023-03-29T02:55:46.804Z,20.13
2023-03-29T02:58:14.088Z,20.13
2023-03-29T03:00:42.193Z,20.14
2023-03-29T03:03:09.697Z,20.14
2023-03-29T03:05:36.157Z,20.16
2023-03-29T03:08:02.788Z,20.17
2023-03-29T03:10:29.220Z,20.17
2023-03-29T03:12:57.095Z,20.18
2023-03-29T03:15:24.157Z,20.18
2023-03-29T03:17:50.561Z,20.18
2023-03-29T03:20:16.927Z,20.18
2023-03-29T03:22:44.048Z,20.18
2023-03-29T03:25:11.156Z,20.18
2023-03-29T03:27:37.998Z,20.17
2023-03-29T03:30:05.357Z,20.18
2023-03-29T03:33:03.715Z,20.24
2023-03-29T03:36:06.490Z,20.12
2023-03-29T03:38:35.105Z,20.14
2023-03-29T03:41:01.711Z,20.15
2023-03-29T03:43:31.982Z,20.17
2023-03-29T03:45:58.397Z,20.19
2023-03-29T03:48:25.445Z,20.19
2023-03-29T03:51:20.819Z,20.18
2023-03-29T03:53:47.812Z,20.19
2023-03-29T03:56:14.189Z,20.19
2023-03-29T03:59:09.271Z,20.18
2023-03-29T04:01:54.268Z,20.18
2023-03-29T04:04:23.401Z,20.19
2023-03-29T04:07:08.305Z,20.22
2023-03-29T04:09:53.124Z,20.25
2023-03-29T04:12:29.837Z,20.25
2023-03-29T04:14:56.686Z,20.24
2023-03-29T04:17:24.796Z,20.26
2023-03-29T04:20:20.263Z,20.25
2023-03-29T04:22:46.847Z,20.26
2023-03-29T04:25:13.281Z,20.27
2023-03-29T04:27:49.014Z,20.26
2023-03-29T04:30:37.898Z,20.26
2023-03-29T04:33:10.284Z,20.28
2023-03-29T04:35:39.217Z,20.28
2023-03-29T04:38:10.068Z,20.29
2023-03-29T04:40:36.510Z,20.30
2023-03-29T04:43:12.414Z,20.31
2023-03-29T04:45:46.174Z,20.32
2023-03-29T04:48:32.238Z,20.30
2023-03-29T04:50:58.685Z,20.31
2023-03-29T04:53:25.098Z,20.30
2023-03-29T04:55:52.628Z,20.29
2023-03-29T04:58:32.392Z,20.29
2023-03-29T05:00:59.663Z,20.28
2023-03-29T05:03:35.573Z,20.28
2023-03-29T05:06:13.469Z,20.29
2023-03-29T05:08:40.271Z,20.26
2023-03-29T05:11:13.560Z,20.25
2023-03-29T05:13:42.565Z,20.25
2023-03-29T05:16:11.093Z,20.26
2023-03-29T05:18:37.852Z,20.27
2023-03-29T05:21:04.502Z,20.30
2023-03-29T05:23:32.596Z,20.42
2023-03-29T05:26:16.899Z,20.35
2023-03-29T05:28:48.888Z,20.32
2023-03-29T05:31:17.254Z,20.31
2023-03-29T05:33:45.170Z,20.33
2023-03-29T05:36:13.463Z,20.33
2023-03-29T05:38:46.916Z,20.33
2023-03-29T05:41:13.813Z,18.98
2023-03-29T05:43:58.631Z,19.65
2023-03-29T05:46:25.859Z,20.03
2023-03-29T05:48:55.795Z,20.19
2023-03-29T05:51:35.601Z,20.31
2023-03-29T05:54:02.042Z,20.42
2023-03-29T05:56:28.507Z,20.51
2023-03-29T05:58:56.874Z,20.51
2023-03-29T06:01:24.494Z,21.06
2023-03-29T06:04:01.688Z,21.21
2023-03-29T06:06:36.800Z,20.93
2023-03-29T06:09:03.807Z,21.33
2023-03-29T06:11:34.869Z,21.48
2023-03-29T06:14:20.420Z,21.41
2023-03-29T06:16:54.976Z,21.54
2023-03-29T06:19:21.562Z,21.61
2023-03-29T06:21:48.415Z,21.11
2023-03-29T06:24:20.622Z,21.06
2023-03-29T06:26:52.393Z,21.01
2023-03-29T06:29:18.898Z,20.82
2023-03-29T06:31:46.620Z,20.78
2023-03-29T06:34:31.074Z,20.78
2023-03-29T06:37:16.960Z,20.83
2023-03-29T06:39:43.657Z,20.85
2023-03-29T06:42:22.522Z,20.82
2023-03-29T06:45:13.135Z,20.88
2023-03-29T06:47:39.786Z,21.25
2023-03-29T06:50:06.608Z,21.09
2023-03-29T06:52:48.092Z,20.90
2023-03-29T06:55:15.867Z,20.86
2023-03-29T06:57:42.558Z,20.81
2023-03-29T07:00:18.112Z,20.78
2023-03-29T07:03:03.859Z,19.16
2023-03-29T07:05:30.242Z,19.72
2023-03-29T07:07:57.371Z,20.14
2023-03-29T07:10:39.355Z,20.34
2023-03-29T07:13:32.900Z,20.25
2023-03-29T07:16:02.203Z,20.38
2023-03-29T07:18:44.698Z,20.47
2023-03-29T07:21:18.799Z,20.50
2023-03-29T07:23:45.141Z,20.53
2023-03-29T07:26:11.968Z,20.48
2023-03-29T07:28:39.303Z,20.58
2023-03-29T07:31:10.894Z,20.57
2023-03-29T07:33:45.329Z,20.58
2023-03-29T07:36:13.006Z,19.72
2023-03-29T07:38:40.128Z,19.96
2023-03-29T07:41:12.253Z,20.24
2023-03-29T07:43:42.286Z,20.71
2023-03-29T07:46:11.623Z,20.99
2023-03-29T07:48:38.911Z,21.21
2023-03-29T07:51:07.832Z,21.25
2023-03-29T07:53:54.473Z,20.86
2023-03-29T07:56:39.446Z,20.85
2023-03-29T07:59:22.422Z,20.82
2023-03-29T08:01:58.305Z,20.86
2023-03-29T08:04:29.254Z,21.05
2023-03-29T08:07:16.974Z,21.17
2023-03-29T08:09:53.617Z,21.13
2023-03-29T08:12:27.068Z,21.19
2023-03-29T08:14:55.861Z,21.20
2023-03-29T08:17:27.253Z,21.15
2023-03-29T08:19:53.624Z,21.24
2023-03-29T08:22:22.483Z,21.04
2023-03-29T08:25:05.825Z,20.85
2023-03-29T08:27:37.605Z,20.80
2023-03-29T08:30:05.127Z,20.70
2023-03-29T08:32:33.888Z,20.68
2023-03-29T08:35:03.835Z,20.70
2023-03-29T08:37:36.806Z,20.71
2023-03-29T08:40:03.677Z,20.70
2023-03-29T08:43:17.684Z,20.67
2023-03-29T08:46:03.959Z,20.65
2023-03-29T08:48:34.049Z,20.67
2023-03-29T08:51:05.634Z,20.63
2023-03-29T08:53:38.078Z,20.62
2023-03-29T08:56:13.699Z,20.64
2023-03-29T08:58:58.610Z,20.65
2023-03-29T09:01:31.674Z,20.64
2023-03-29T09:04:03.657Z,20.64
2023-03-29T09:06:45.708Z,20.67
2023-03-29T09:09:18.537Z,20.70
2023-03-29T09:12:09.528Z,20.66
2023-03-29T09:14:45.336Z,20.58
2023-03-29T09:17:21.476Z,20.61
2023-03-29T09:19:54.041Z,20.64
2023-03-29T09:22:42.658Z,20.73
2023-03-29T09:25:25.857Z,21.31
2023-03-29T09:27:52.798Z,20.62
2023-03-29T09:30:42.934Z,20.96
2023-03-29T09:33:12.680Z,21.11
2023-03-29T09:36:17.325Z,21.27
2023-03-29T09:38:47.852Z,21.26
2023-03-29T09:41:29.978Z,21.19
2023-03-29T09:43:56.918Z,21.08
2023-03-29T09:46:28.986Z,21.30
2023-03-29T09:56:49.886Z,21.61
2023-03-29T09:59:19.501Z,21.64
2023-03-29T10:01:46.014Z,21.67
2023-03-29T10:04:14.073Z,21.73
2023-03-29T10:06:44.897Z,21.68
2023-03-29T10:09:14.581Z,21.83
2023-03-29T10:11:46.671Z,21.93
2023-03-29T10:14:14.355Z,21.92
2023-03-29T10:16:41.317Z,21.82
2023-03-29T10:19:21.207Z,21.76
2023-03-29T10:21:48.929Z,21.77
2023-03-29T10:24:18.263Z,21.79
2023-03-29T10:26:44.652Z,21.83
2023-03-29T10:29:10.983Z,21.74
2023-03-29T10:31:41.570Z,21.51
2023-03-29T10:34:08.922Z,21.42
2023-03-29T10:36:35.448Z,21.33
2023-03-29T10:39:05.780Z,21.55
2023-03-29T10:41:34.009Z,21.66
2023-03-29T10:44:00.314Z,21.70
2023-03-29T10:46:33.627Z,21.59
2023-03-29T10:49:02.490Z,21.73
2023-03-29T10:51:30.119Z,21.48
2023-03-29T10:53:57.150Z,21.32
2023-03-29T10:56:29.705Z,21.37
2023-03-29T10:59:00.145Z,21.37
2023-03-29T11:01:27.381Z,21.36
2023-03-29T11:04:16.552Z,21.50
2023-03-29T11:06:53.325Z,21.59
2023-03-29T11:09:45.721Z,21.54
2023-03-29T11:12:30.808Z,21.26
2023-03-29T11:15:07.834Z,21.34
2023-03-29T11:17:38.273Z,21.31
2023-03-29T11:20:12.877Z,21.27
2023-03-29T11:22:54.298Z,21.56
2023-03-29T11:25:23.231Z,21.73
2023-03-29T11:27:55.138Z,21.65
2023-03-29T11:30:25.782Z,21.57
2023-03-29T11:32:59.898Z,21.68
2023-03-29T11:35:34.267Z,21.65
2023-03-29T11:38:19.010Z,21.58
2023-03-29T11:41:02.771Z,21.58
2023-03-29T11:43:29.487Z,21.59
2023-03-29T11:45:57.686Z,21.58
2023-03-29T11:48:25.409Z,21.61
2023-03-29T11:50:57.914Z,21.65
2023-03-29T11:53:25.541Z,21.75
2023-03-29T11:55:52.221Z,21.58
2023-03-29T11:58:22.370Z,21.65
2023-03-29T12:00:56.237Z,21.47
2023-03-29T12:03:40.396Z,21.24
2023-03-29T12:06:17.713Z,19.80
2023-03-29T12:08:52.403Z,20.19
2023-03-29T12:11:21.212Z,20.55
2023-03-29T12:13:48.985Z,21.11
2023-03-29T12:16:17.311Z,21.38
2023-03-29T12:18:46.963Z,21.51
2023-03-29T12:21:14.149Z,21.58
2023-03-29T12:23:41.287Z,21.60
2023-03-29T12:26:12.170Z,21.59
2023-03-29T12:28:57.580Z,21.60
2023-03-29T12:31:42.716Z,21.65
2023-03-29T12:34:14.260Z,21.62
2023-03-29T12:37:19.143Z,21.60
2023-03-29T12:39:45.514Z,21.68
2023-03-29T12:42:44.365Z,21.61
2023-03-29T12:45:52.052Z,21.61
2023-03-29T12:48:19.173Z,21.64
2023-03-29T12:50:46.838Z,21.55
2023-03-29T12:53:23.258Z,21.57
2023-03-29T12:56:08.422Z,21.54
2023-03-29T12:58:42.598Z,21.55
2023-03-29T13:01:10.514Z,21.60
2023-03-29T13:03:39.991Z,21.59
2023-03-29T13:06:09.366Z,21.42
2023-03-29T13:08:36.715Z,21.57
2023-03-29T13:11:03.624Z,21.55
2023-03-29T13:13:31.069Z,21.58
2023-03-29T13:16:07.815Z,21.33
2023-03-29T13:19:01.271Z,21.25
2023-03-29T13:21:46.530Z,21.16
2023-03-29T13:24:23.350Z,21.17
2023-03-29T13:26:49.640Z,21.20
2023-03-29T13:29:22.375Z,21.13
2023-03-29T13:31:56.374Z,21.12
2023-03-29T13:34:41.878Z,21.14
2023-03-29T13:37:27.908Z,21.15
2023-03-29T13:39:54.444Z,20.95
2023-03-29T13:42:32.831Z,20.92
2023-03-29T13:45:18.435Z,20.97
2023-03-29T13:47:54.909Z,21.03
2023-03-29T13:50:36.648Z,21.21
2023-03-29T13:53:18.708Z,21.50
2023-03-29T13:55:48.308Z,21.63
2023-03-29T13:58:17.325Z,21.68
2023-03-29T14:00:50.997Z,21.75
2023-03-29T14:03:17.692Z,21.58
2023-03-29T14:05:44.566Z,21.36
2023-03-29T14:08:20.900Z,21.27
2023-03-29T14:10:47.238Z,21.25
2023-03-29T14:13:13.911Z,21.24
2023-03-29T14:15:48.454Z,21.27
2023-03-29T14:18:15.655Z,21.27
2023-03-29T14:20:53.458Z,21.25
2023-03-29T14:23:20.298Z,21.23
2023-03-29T14:25:46.692Z,21.25
2023-03-29T14:28:20.367Z,21.24
2023-03-29T14:30:47.171Z,21.22
2023-03-29T14:33:13.932Z,21.22
2023-03-29T14:35:40.526Z,21.22
2023-03-29T14:38:06.925Z,21.21
2023-03-29T14:40:33.906Z,21.20
2023-03-29T14:43:01.570Z,21.18
2023-03-29T14:45:27.896Z,21.48
2023-03-29T14:47:54.318Z,21.83
2023-03-29T14:50:26.099Z,21.97
2023-03-29T14:52:52.674Z,21.96
2023-03-29T14:55:23.481Z,21.89
2023-03-29T14:57:50.003Z,21.88
2023-03-29T15:00:19.775Z,21.81
2023-03-29T15:02:59.293Z,21.79
2023-03-29T15:05:29.523Z,21.71
2023-03-29T15:07:56.353Z,21.79
2023-03-29T15:10:22.765Z,21.74
2023-03-29T15:12:49.470Z,21.71
2023-03-29T15:15:16.150Z,21.64
2023-03-29T15:17:50.287Z,21.51
2023-03-29T15:20:21.396Z,21.55
2023-03-29T15:23:01.362Z,21.69
2023-03-29T15:25:28.318Z,21.77
2023-03-29T15:27:55.454Z,21.80
2023-03-29T15:30:28.364Z,21.85
2023-03-29T15:32:54.879Z,21.50
2023-03-29T15:35:22.625Z,21.43
2023-03-29T15:37:49.243Z,21.43
2023-03-29T15:40:16.415Z,21.50
2023-03-29T15:42:42.898Z,21.88
2023-03-29T15:45:15.700Z,21.83
2023-03-29T15:47:42.240Z,21.79
2023-03-29T15:50:08.781Z,21.73
2023-03-29T15:52:35.311Z,21.78
2023-03-29T15:55:02.440Z,21.82
2023-03-29T15:57:28.849Z,21.56
2023-03-29T15:59:55.273Z,21.58
2023-03-29T16:02:22.995Z,21.60
2023-03-29T16:04:49.390Z,21.53
2023-03-29T16:07:16.400Z,21.68
2023-03-29T16:09:42.915Z,21.92
2023-03-29T16:12:09.633Z,21.96
2023-03-29T16:14:36.023Z,21.74
2023-03-29T16:17:03.001Z,21.41
2023-03-29T16:19:29.779Z,21.57
2023-03-29T16:21:56.301Z,21.65
2023-03-29T16:24:32.000Z,21.70
2023-03-29T16:26:58.444Z,21.65
2023-03-29T16:29:24.861Z,21.53
2023-03-29T16:31:51.403Z,21.48
2023-03-29T16:34:19.086Z,21.55
2023-03-29T16:36:49.064Z,21.46
2023-03-29T16:39:15.952Z,21.37
2023-03-29T16:41:42.305Z,21.45
2023-03-29T16:44:11.035Z,20.99
2023-03-29T16:46:37.589Z,20.58
2023-03-29T16:49:07.745Z,20.76
2023-03-29T16:51:34.089Z,20.77
2023-03-29T16:54:00.677Z,20.88
2023-03-29T16:56:28.327Z,20.89
2023-03-29T16:58:54.753Z,20.85
2023-03-29T17:01:22.683Z,20.89
2023-03-29T17:03:49.100Z,20.92
2023-03-29T17:06:15.629Z,21.01
2023-03-29T17:08:42.419Z,21.05
2023-03-29T17:11:08.832Z,21.06
2023-03-29T17:13:35.181Z,21.09
2023-03-29T17:16:01.874Z,21.08
2023-03-29T17:18:28.525Z,21.07
2023-03-29T17:20:57.674Z,21.07
2023-03-29T17:23:24.155Z,21.09
2023-03-29T17:25:50.584Z,21.07
2023-03-29T17:28:16.902Z,21.07
2023-03-29T17:30:46.311Z,21.04
2023-03-29T17:33:13.501Z,21.04
2023-03-29T17:35:46.253Z,21.05
2023-03-29T17:38:12.624Z,20.95
2023-03-29T17:40:39.231Z,20.81
2023-03-29T17:43:05.578Z,20.70
2023-03-29T17:45:32.218Z,20.70
2023-03-29T17:47:58.678Z,20.63
2023-03-29T17:50:25.046Z,20.59
2023-03-29T17:52:51.378Z,20.57
2023-03-29T17:55:17.914Z,20.04
2023-03-29T17:57:44.263Z,19.70
2023-03-29T18:00:12.093Z,19.89
2023-03-29T18:02:38.684Z,20.20
2023-03-29T18:05:05.732Z,20.43
2023-03-29T18:07:32.153Z,20.51
2023-03-29T18:09:58.493Z,20.65
2023-03-29T18:12:25.468Z,20.68
2023-03-29T18:14:52.020Z,20.74
2023-03-29T18:17:18.390Z,20.75
2023-03-29T18:19:44.723Z,20.74
2023-03-29T18:22:12.248Z,20.78
2023-03-29T18:24:38.574Z,20.70
2023-03-29T18:27:05.452Z,20.69
2023-03-29T18:29:31.799Z,20.75
2023-03-29T18:32:02.708Z,20.82
2023-03-29T18:34:29.683Z,20.74
2023-03-29T18:36:56.386Z,20.68
2023-03-29T18:39:22.724Z,20.69
2023-03-29T18:41:49.053Z,20.64
2023-03-29T18:44:15.388Z,20.57
2023-03-29T18:46:41.790Z,20.58
2023-03-29T18:49:08.195Z,20.61
2023-03-29T18:51:34.584Z,20.60
2023-03-29T18:54:01.299Z,20.61
2023-03-29T18:56:27.898Z,20.60
2023-03-29T18:58:54.275Z,20.59
2023-03-29T19:01:20.654Z,20.59
2023-03-29T19:03:47.847Z,20.59
2023-03-29T19:06:15.082Z,20.60
2023-03-29T19:08:41.635Z,20.61
2023-03-29T19:11:08.673Z,20.61
2023-03-29T19:13:35.102Z,20.63
2023-03-29T19:16:01.560Z,20.63
2023-03-29T19:18:28.122Z,20.65
2023-03-29T19:20:54.464Z,20.65
2023-03-29T19:23:21.279Z,20.65
2023-03-29T19:25:51.340Z,20.68
2023-03-29T19:28:17.678Z,20.65
2023-03-29T19:30:44.184Z,20.66
2023-03-29T19:33:10.640Z,20.65
2023-03-29T19:35:37.009Z,20.67
2023-03-29T19:38:03.372Z,20.68
2023-03-29T19:40:29.696Z,20.65
2023-03-29T19:42:56.028Z,20.64
2023-03-29T19:45:23.324Z,20.64
2023-03-29T19:47:55.718Z,20.62
2023-03-29T19:50:22.635Z,20.61
2023-03-29T19:52:49.029Z,20.61
2023-03-29T19:55:15.371Z,20.60
2023-03-29T19:57:42.459Z,20.61
2023-03-29T20:00:10.487Z,20.60
2023-03-29T20:02:39.651Z,20.58
2023-03-29T20:05:06.652Z,20.57
2023-03-29T20:07:32.975Z,20.56
2023-03-29T20:09:59.301Z,20.57
2023-03-29T20:12:25.848Z,20.58
2023-03-29T20:14:52.174Z,20.60
2023-03-29T20:17:18.496Z,20.57
2023-03-29T20:19:44.829Z,20.54
2023-03-29T20:22:11.447Z,20.54
2023-03-29T20:24:37.760Z,20.53
2023-03-29T20:27:04.408Z,20.51
2023-03-29T20:29:31.129Z,20.51
2023-03-29T20:31:58.918Z,20.51
2023-03-29T20:34:25.514Z,20.49
2023-03-29T20:36:55.128Z,20.49
2023-03-29T20:39:25.563Z,20.57
2023-03-29T20:41:52.206Z,20.53
2023-03-29T20:44:18.529Z,20.51
2023-03-29T20:47:02.114Z,20.50
2023-03-29T20:49:37.183Z,20.48
2023-03-29T20:52:07.936Z,20.52
2023-03-29T20:54:35.054Z,20.47
2023-03-29T20:57:01.440Z,20.46
2023-03-29T20:59:28.519Z,20.46
2023-03-29T21:01:54.893Z,20.44
2023-03-29T21:04:21.305Z,20.45
2023-03-29T21:06:49.577Z,20.44
2023-03-29T21:09:19.246Z,20.44
2023-03-29T21:11:45.610Z,20.42
2023-03-29T21:14:11.959Z,20.44
2023-03-29T21:16:41.604Z,20.42
2023-03-29T21:19:08.692Z,20.42
2023-03-29T21:21:35.816Z,20.41
2023-03-29T21:24:02.389Z,20.41
2023-03-29T21:26:28.728Z,20.40
2023-03-29T21:28:55.236Z,20.41
2023-03-29T21:31:21.577Z,20.40
2023-03-29T21:33:47.932Z,20.39
2023-03-29T21:36:14.433Z,20.39
2023-03-29T21:38:40.834Z,20.39
2023-03-29T21:41:10.622Z,20.39
2023-03-29T21:43:36.939Z,20.38
2023-03-29T21:46:03.272Z,20.38
2023-03-29T21:48:29.602Z,20.38
2023-03-29T21:50:56.076Z,20.37
2023-03-29T21:53:22.413Z,20.35
2023-03-29T21:55:48.979Z,20.36
2023-03-29T21:58:15.307Z,20.35
2023-03-29T22:00:41.689Z,20.28
2023-03-29T22:03:08.112Z,20.36
2023-03-29T22:05:34.629Z,20.35
2023-03-29T22:08:00.943Z,20.34
2023-03-29T22:10:27.529Z,20.33
2023-03-29T22:12:53.873Z,20.33
2023-03-29T22:15:22.950Z,20.32
2023-03-29T22:17:50.313Z,20.32
2023-03-29T22:20:18.398Z,20.31
2023-03-29T22:22:45.289Z,20.31
2023-03-29T22:25:11.639Z,20.30
2023-03-29T22:27:37.977Z,20.30
2023-03-29T22:30:04.458Z,20.28
2023-03-29T22:32:30.914Z,20.28
2023-03-29T22:34:57.269Z,20.28
2023-03-29T22:37:23.574Z,20.28
2023-03-29T22:39:49.994Z,20.28
2023-03-29T22:42:16.599Z,20.27
2023-03-29T22:44:42.996Z,20.27
2023-03-29T22:47:09.317Z,20.24
2023-03-29T22:49:35.787Z,20.26
2023-03-29T22:52:02.366Z,20.24
2023-03-29T22:54:28.715Z,20.25
2023-03-29T22:56:55.074Z,20.25
2023-03-29T22:59:21.473Z,20.24
2023-03-29T23:01:48.349Z,20.24
2023-03-29T23:04:14.783Z,20.24
2023-03-29T23:06:41.496Z,20.24
2023-03-29T23:09:07.870Z,20.22
2023-03-29T23:11:34.193Z,20.23
2023-03-29T23:14:03.916Z,20.22
2023-03-29T23:16:30.803Z,20.20
2023-03-29T23:18:58.268Z,20.24
2023-03-29T23:21:24.856Z,20.25
2023-03-29T23:23:51.171Z,20.24
2023-03-29T23:26:17.614Z,20.22
2023-03-29T23:28:44.751Z,20.23
2023-03-29T23:31:12.060Z,20.22
2023-03-29T23:33:41.580Z,20.21
2023-03-29T23:36:08.932Z,20.21
2023-03-29T23:38:35.733Z,20.20
2023-03-29T23:41:02.662Z,20.19
2023-03-29T23:43:32.653Z,20.19
2023-03-29T23:45:59.571Z,20.19
2023-03-29T23:48:25.977Z,20.19
2023-03-29T23:50:52.339Z,20.18
2023-03-29T23:53:19.794Z,20.18
2023-03-29T23:55:47.342Z,20.17
2023-03-29T23:58:13.975Z,20.18
